Time;durP1;ratioP1;P1;durP2;ratioP2;P2;SDS_P1;SDS_P2;PMS_P1;PMS_P2;Temp;Humidity;BMP_temperature;BMP_pressure;BME280_temperature;BME280_humidity;BME280_pressure;Samples;Min_cycle;Max_cycle;Signal;HPM_P1;HPM_P2
2022/04/14 00:01:01;;;;;;;12.88;7.95;;;;;;;5.83;53.21;95807.31;5066122;28;20086;-68
2022/04/14 00:03:26;;;;;;;13.10;7.13;;;;;;;5.81;53.43;95807.44;5067480;28;20150;-68
2022/04/14 00:05:52;;;;;;;16.38;7.60;;;;;;;5.82;54.09;95809.13;5066432;28;20374;-69
2022/04/14 00:08:17;;;;;;;12.82;6.90;;;;;;;5.79;53.77;95803.22;5067185;28;20013;-68
2022/04/14 00:10:43;;;;;;;15.40;7.53;;;;;;;5.80;53.25;95800.41;5066502;28;20025;-68
2022/04/14 00:13:08;;;;;;;12.68;5.85;;;;;;;5.76;53.22;95799.03;5066362;28;20391;-68
2022/04/14 00:15:34;;;;;;;14.20;6.78;;;;;;;5.76;52.83;95792.84;5066727;28;20437;-67
2022/04/14 00:17:59;;;;;;;11.65;6.18;;;;;;;5.72;53.42;95797.63;5065582;28;20394;-68
2022/04/14 00:20:25;;;;;;;13.45;6.78;;;;;;;5.63;53.61;95798.44;5066477;28;20032;-68
2022/04/14 00:22:50;;;;;;;10.68;6.22;;;;;;;5.56;53.61;95793.66;5066015;28;20025;-67
2022/04/14 00:25:16;;;;;;;11.75;6.35;;;;;;;5.57;53.57;95791.84;5066696;28;20044;-69
2022/04/14 00:27:41;;;;;;;12.55;6.47;;;;;;;5.57;53.10;95797.16;5065852;28;20047;-68
2022/04/14 00:30:07;;;;;;;12.48;6.18;;;;;;;5.53;53.17;95793.94;5066450;28;20083;-69
2022/04/14 00:32:33;;;;;;;9.63;5.82;;;;;;;5.52;54.10;95808.22;5066109;28;20025;-69
2022/04/14 00:34:58;;;;;;;12.63;5.78;;;;;;;5.52;53.47;95813.56;5066053;28;20106;-68
2022/04/14 00:37:23;;;;;;;10.43;5.97;;;;;;;5.42;54.32;95807.34;5066572;28;20084;-68
2022/04/14 00:39:52;;;;;;;17.88;7.03;;;;;;;5.29;54.50;95805.78;5066009;28;20021;-67
2022/04/14 00:42:17;;;;;;;12.52;6.65;;;;;;;5.26;54.54;95813.19;5066285;28;20059;-69
2022/04/14 00:44:43;;;;;;;11.27;5.57;;;;;;;5.27;55.13;95805.06;5065612;28;20021;-68
2022/04/14 00:47:10;;;;;;;10.45;6.68;;;;;;;5.32;54.49;95810.81;5048757;28;20028;-68
2022/04/14 00:49:35;;;;;;;13.30;6.30;;;;;;;5.27;53.96;95805.06;5048060;28;20028;-68
2022/04/14 00:52:01;;;;;;;10.88;6.05;;;;;;;5.18;54.63;95811.19;5066345;28;20127;-68
2022/04/14 00:54:28;;;;;;;13.30;6.00;;;;;;;5.19;54.25;95807.56;5066007;28;20028;-68
2022/04/14 00:56:55;;;;;;;9.93;5.85;;;;;;;5.13;54.24;95813.41;5065569;28;20063;-68
2022/04/14 00:59:21;;;;;;;12.20;6.07;;;;;;;5.10;55.32;95819.00;5066075;28;20035;-68
2022/04/14 01:01:46;;;;;;;11.30;5.75;;;;;;;5.05;55.02;95830.88;5065379;28;20021;-68
2022/04/14 01:04:11;;;;;;;11.27;6.45;;;;;;;5.04;55.19;95815.91;5066508;28;20029;-69
2022/04/14 01:06:38;;;;;;;11.43;6.43;;;;;;;5.06;55.00;95813.13;5030926;28;20027;-69
2022/04/14 01:09:16;;;;;;;12.77;6.28;;;;;;;5.10;55.66;95819.00;5048521;28;20013;-69
2022/04/14 01:11:43;;;;;;;12.10;6.13;;;;;;;5.12;55.60;95822.38;5034884;28;20487;-68
2022/04/14 01:14:09;;;;;;;10.95;6.28;;;;;;;5.11;55.23;95818.03;5030841;28;20467;-68
2022/04/14 01:16:34;;;;;;;14.93;7.15;;;;;;;5.10;55.50;95816.31;5030944;28;20035;-68
2022/04/14 01:18:59;;;;;;;13.07;6.88;;;;;;;5.09;54.94;95818.16;5065246;28;20048;-69
2022/04/14 01:21:28;;;;;;;10.98;6.75;;;;;;;5.11;55.18;95820.69;5066064;28;20028;-69
2022/04/14 01:23:53;;;;;;;13.32;7.10;;;;;;;5.10;55.17;95819.84;5065042;28;20139;-68
2022/04/14 01:26:19;;;;;;;11.60;5.65;;;;;;;5.15;54.64;95822.09;5066020;28;20028;-68
2022/04/14 01:28:44;;;;;;;9.48;6.20;;;;;;;5.14;55.13;95821.25;5032219;28;20169;-68
2022/04/14 01:31:09;;;;;;;12.88;6.72;;;;;;;5.08;55.64;95821.78;5069496;28;20024;-68
2022/04/14 01:33:35;;;;;;;11.88;6.05;;;;;;;5.03;55.50;95818.69;5051881;28;20036;-67
2022/04/14 01:36:00;;;;;;;20.00;7.65;;;;;;;5.01;55.66;95823.31;5069540;28;20024;-68
2022/04/14 01:38:26;;;;;;;12.85;6.93;;;;;;;5.04;55.99;95815.06;5069868;28;20028;-68
2022/04/14 01:40:51;;;;;;;12.50;7.05;;;;;;;5.03;56.08;95818.69;5069198;28;20033;-68
2022/04/14 01:43:17;;;;;;;13.43;7.25;;;;;;;4.95;56.54;95820.19;5070067;28;20464;-68
2022/04/14 01:45:46;;;;;;;12.20;7.15;;;;;;;4.92;56.52;95814.28;5068894;28;20031;-68
2022/04/14 01:48:12;;;;;;;13.43;6.57;;;;;;;4.92;56.31;95824.91;5069750;28;20028;-68
2022/04/14 01:50:37;;;;;;;10.80;6.78;;;;;;;4.89;56.02;95825.19;5069387;28;20031;-68
2022/04/14 01:53:03;;;;;;;12.50;6.88;;;;;;;4.82;55.58;95823.06;5069183;28;20503;-67
2022/04/14 01:55:28;;;;;;;15.48;6.55;;;;;;;4.81;55.85;95826.69;5051314;28;20493;-68
2022/04/14 01:57:54;;;;;;;14.65;6.90;;;;;;;4.70;54.95;95829.44;5068857;28;20029;-68
2022/04/14 02:00:19;;;;;;;14.13;6.38;;;;;;;4.56;54.83;95834.09;5069745;28;20035;-68
2022/04/14 02:02:45;;;;;;;12.18;6.82;;;;;;;4.39;55.38;95832.84;5068357;28;20032;-68
2022/04/14 02:05:10;;;;;;;12.70;6.80;;;;;;;4.33;55.17;95844.00;5069708;28;20025;-68
2022/04/14 02:07:35;;;;;;;10.75;6.35;;;;;;;4.30;55.47;95838.94;5068771;28;20020;-68
2022/04/14 02:10:01;;;;;;;11.32;6.60;;;;;;;4.23;56.36;95838.59;5068992;28;20495;-68
2022/04/14 02:12:26;;;;;;;12.30;6.50;;;;;;;4.24;56.56;95829.66;5069249;28;20401;-68
2022/04/14 02:14:55;;;;;;;12.52;6.75;;;;;;;4.30;56.86;95830.97;5068238;28;20032;-68
2022/04/14 02:17:20;;;;;;;18.13;7.63;;;;;;;4.29;56.94;95827.47;5069083;28;20111;-68
2022/04/14 02:19:47;;;;;;;15.65;7.53;;;;;;;4.33;57.07;95823.59;5068217;28;20032;-68
2022/04/14 02:22:13;;;;;;;14.80;8.13;;;;;;;4.40;57.60;95828.41;5069315;28;20067;-68
2022/04/14 02:24:38;;;;;;;16.27;7.97;;;;;;;4.42;56.68;95829.94;5067955;28;20072;-68
2022/04/14 02:27:04;;;;;;;14.55;6.25;;;;;;;4.35;55.81;95831.44;5068681;28;20028;-68
2022/04/14 02:29:29;;;;;;;9.13;5.65;;;;;;;4.23;56.10;95830.63;5068847;28;20020;-68
2022/04/14 02:31:57;;;;;;;10.95;6.13;;;;;;;4.22;56.27;95826.31;5067927;28;20024;-68
2022/04/14 02:34:26;;;;;;;12.00;6.32;;;;;;;4.16;56.29;95824.16;5068953;28;20036;-68
2022/04/14 02:36:52;;;;;;;11.77;5.82;;;;;;;4.14;56.23;95826.94;5068171;28;20028;-68
2022/04/14 02:39:18;;;;;;;11.13;6.35;;;;;;;4.13;57.09;95829.69;5068973;28;20520;-68
2022/04/14 02:41:43;;;;;;;10.38;6.30;;;;;;;4.13;57.35;95832.34;5067114;28;20482;-68
2022/04/14 02:44:08;;;;;;;11.85;6.30;;;;;;;4.14;57.04;95839.38;5068672;28;20384;-67
2022/04/14 02:46:34;;;;;;;12.65;6.30;;;;;;;4.14;56.97;95839.38;5068764;28;20242;-68
2022/04/14 02:48:59;;;;;;;10.70;6.25;;;;;;;4.11;56.84;95839.63;5068108;28;20035;-68
2022/04/14 02:51:25;;;;;;;10.38;6.50;;;;;;;4.07;56.71;95845.19;5068507;28;20024;-68
2022/04/14 02:53:50;;;;;;;10.77;6.00;;;;;;;4.07;56.67;95839.88;5067749;28;20051;-68
2022/04/14 02:56:15;;;;;;;11.00;6.25;;;;;;;4.10;57.26;95843.22;5068566;28;20463;-69
2022/04/14 02:58:41;;;;;;;10.95;6.10;;;;;;;4.10;57.25;95838.78;5067705;28;20025;-68
2022/04/14 03:01:06;;;;;;;10.20;6.35;;;;;;;4.05;56.94;95836.50;5068318;28;20036;-68
2022/04/14 03:03:32;;;;;;;10.70;6.22;;;;;;;4.01;56.38;95832.44;5068061;28;20036;-68
2022/04/14 03:05:57;;;;;;;12.93;6.60;;;;;;;3.98;56.49;95835.34;5068000;28;20025;-68
2022/04/14 03:08:22;;;;;;;12.73;6.53;;;;;;;3.94;56.92;95839.19;5068086;28;20028;-68
2022/04/14 03:10:48;;;;;;;13.75;6.38;;;;;;;3.91;57.11;95840.31;5067462;28;20028;-68
2022/04/14 03:13:13;;;;;;;12.88;6.88;;;;;;;3.88;56.93;95834.41;5068125;28;20491;-68
2022/04/14 03:15:39;;;;;;;11.32;6.28;;;;;;;3.91;56.79;95844.75;5067845;28;20017;-67
2022/04/14 03:18:05;;;;;;;14.00;6.55;;;;;;;3.89;56.96;95841.38;5067901;28;20020;-68
2022/04/14 03:20:31;;;;;;;14.63;6.97;;;;;;;3.83;56.49;95848.88;5067206;28;20568;-67
2022/04/14 03:22:56;;;;;;;14.30;6.07;;;;;;;3.76;56.41;95846.84;5067894;28;20467;-67
2022/04/14 03:25:22;;;;;;;10.45;6.13;;;;;;;3.69;57.22;95846.50;5067181;28;20106;-68
2022/04/14 03:27:47;;;;;;;9.85;6.15;;;;;;;3.75;57.03;95845.16;5067428;28;20502;-68
2022/04/14 03:30:13;;;;;;;12.45;6.05;;;;;;;3.70;57.21;95854.34;5067439;28;20024;-68
2022/04/14 03:32:42;;;;;;;10.63;5.95;;;;;;;3.71;56.42;95855.16;5067171;28;20059;-68
2022/04/14 03:35:08;;;;;;;14.98;6.22;;;;;;;3.65;55.84;95851.22;5067417;28;20020;-68
2022/04/14 03:37:33;;;;;;;11.98;6.47;;;;;;;3.56;56.73;95855.44;5066953;28;20027;-68
2022/04/14 03:39:59;;;;;;;10.07;6.20;;;;;;;3.50;56.79;95858.56;5067685;28;20133;-68
2022/04/14 03:42:25;;;;;;;15.20;6.68;;;;;;;3.47;57.26;95848.22;5066880;28;20086;-68
2022/04/14 03:44:51;;;;;;;13.77;7.18;;;;;;;3.46;57.49;95862.44;5049486;28;20028;-68
2022/04/14 03:47:16;;;;;;;14.68;7.13;;;;;;;3.55;57.87;95859.06;5067108;28;20419;-68
2022/04/14 03:49:42;;;;;;;14.20;6.75;;;;;;;3.52;58.08;95854.00;5066776;28;20407;-68
2022/04/14 03:52:07;;;;;;;10.65;6.13;;;;;;;3.57;58.46;95858.94;5066062;28;20028;-67
2022/04/14 03:54:33;;;;;;;14.65;7.22;;;;;;;3.64;57.90;95860.16;5066548;28;20027;-68
2022/04/14 03:56:58;;;;;;;14.07;7.25;;;;;;;3.62;58.23;95861.22;5067421;28;20035;-68
2022/04/14 03:59:24;;;;;;;10.63;7.00;;;;;;;3.58;58.25;95863.28;5066136;28;20028;-68
2022/04/14 04:01:49;;;;;;;13.60;8.18;;;;;;;3.60;58.70;95866.66;5067551;28;20020;-69
2022/04/14 04:04:15;;;;;;;13.57;8.25;;;;;;;3.67;58.71;95865.22;5066139;28;20043;-68
2022/04/14 04:06:40;;;;;;;15.52;8.40;;;;;;;3.67;58.53;95864.34;5066638;28;20048;-68
2022/04/14 04:09:05;;;;;;;13.25;8.32;;;;;;;3.58;58.70;95866.78;5066681;28;20032;-68
2022/04/14 04:11:31;;;;;;;21.00;8.05;;;;;;;3.53;58.45;95863.63;5066361;28;20422;-67
2022/04/14 04:13:56;;;;;;;15.65;8.07;;;;;;;3.54;58.48;95860.03;5067187;28;20481;-68
2022/04/14 04:16:22;;;;;;;26.90;9.18;;;;;;;3.64;58.50;95867.25;5065887;28;20049;-68
2022/04/14 04:18:47;;;;;;;15.00;7.90;;;;;;;3.67;58.22;95870.50;5067074;28;20020;-67
2022/04/14 04:21:13;;;;;;;17.17;8.25;;;;;;;3.64;58.43;95875.22;5066162;28;20027;-68
2022/04/14 04:23:38;;;;;;;13.75;7.95;;;;;;;3.62;58.32;95878.00;5066264;28;20052;-68
2022/04/14 04:26:04;;;;;;;13.57;8.07;;;;;;;3.69;59.06;95881.81;5066153;28;20495;-68
2022/04/14 04:28:32;;;;;;;16.85;8.18;;;;;;;3.80;58.69;95875.69;5065955;28;20028;-67
2022/04/14 04:30:58;;;;;;;21.25;9.07;;;;;;;3.99;58.07;95879.47;5048970;28;20028;-68
2022/04/14 04:33:23;;;;;;;16.00;9.02;;;;;;;4.10;57.40;95888.38;5065551;28;20029;-69
2022/04/14 04:35:52;;;;;;;18.25;9.00;;;;;;;4.29;57.17;95893.00;5066434;28;20033;-69
2022/04/14 04:38:17;;;;;;;13.35;7.13;;;;;;;4.41;56.08;95902.63;5031187;28;20082;-69
2022/04/14 04:40:43;;;;;;;18.02;8.90;;;;;;;4.61;55.78;95905.44;5066776;28;20437;-68
2022/04/14 04:43:09;;;;;;;19.80;8.73;;;;;;;4.77;55.42;95912.13;5065656;28;20032;-68
2022/04/14 04:45:35;;;;;;;17.52;8.88;;;;;;;4.97;54.45;95904.28;5065782;28;20032;-69
2022/04/14 04:48:02;;;;;;;19.70;8.57;;;;;;;5.16;54.11;95915.03;5066226;28;20059;-67
2022/04/14 04:50:28;;;;;;;15.88;10.20;;;;;;;5.43;54.58;95904.81;5065346;28;20055;-68
2022/04/14 04:52:53;;;;;;;17.80;9.23;;;;;;;5.62;53.31;95913.84;5066457;28;20052;-67
2022/04/14 04:55:18;;;;;;;22.00;9.70;;;;;;;5.83;52.59;95921.78;5065146;28;20031;-68
2022/04/14 04:57:44;;;;;;;15.63;9.38;;;;;;;6.08;53.22;95932.13;5066313;28;20016;-68
2022/04/14 05:00:11;;;;;;;19.35;9.32;;;;;;;6.22;51.98;95929.06;5065367;28;20028;-68
2022/04/14 05:02:36;;;;;;;14.73;9.68;;;;;;;6.45;51.27;95928.78;5065903;28;20082;-68
2022/04/14 05:05:03;;;;;;;17.05;10.25;;;;;;;6.69;51.27;95932.84;5065562;28;20483;-68
2022/04/14 05:07:28;;;;;;;15.73;8.60;;;;;;;6.88;50.33;95923.19;5065652;28;20029;-68
2022/04/14 05:09:54;;;;;;;16.48;7.95;;;;;;;7.08;49.66;95931.16;5048294;28;20027;-68
2022/04/14 05:12:19;;;;;;;16.23;7.70;;;;;;;7.26;49.24;95934.78;5065636;28;20105;-68
2022/04/14 05:14:44;;;;;;;14.30;7.63;;;;;;;7.38;48.35;95938.09;5065935;28;20471;-68
2022/04/14 05:17:10;;;;;;;11.13;7.13;;;;;;;7.52;48.55;95939.50;5065197;28;20017;-68
2022/04/14 05:19:35;;;;;;;16.05;7.72;;;;;;;7.67;48.22;95947.03;5066149;28;20016;-68
2022/04/14 05:22:03;;;;;;;15.63;7.35;;;;;;;7.87;47.59;95945.09;5065497;28;20027;-68
2022/04/14 05:24:30;;;;;;;12.68;8.10;;;;;;;8.04;46.87;95938.13;5065252;28;20048;-68
2022/04/14 05:26:56;;;;;;;14.70;7.38;;;;;;;8.20;47.22;95943.81;5065966;28;20089;-68
2022/04/14 05:29:21;;;;;;;13.55;7.72;;;;;;;8.43;47.43;95946.91;5065489;28;20012;-68
2022/04/14 05:31:47;;;;;;;13.98;8.10;;;;;;;8.59;46.52;95946.25;5065592;28;20340;-68
2022/04/14 05:34:12;;;;;;;14.48;7.53;;;;;;;8.81;46.28;95949.50;5065059;28;20033;-68
2022/04/14 05:36:38;;;;;;;12.90;7.88;;;;;;;9.01;45.93;95946.66;5065877;28;20032;-68
2022/04/14 05:39:03;;;;;;;16.30;8.05;;;;;;;9.22;45.70;95945.50;5065351;28;20051;-68
2022/04/14 05:41:29;;;;;;;15.45;7.80;;;;;;;9.50;45.16;95961.41;5065689;28;20027;-69
2022/04/14 05:43:55;;;;;;;13.57;7.93;;;;;;;9.61;44.72;95961.13;5065404;28;20032;-68
2022/04/14 05:46:20;;;;;;;17.75;7.68;;;;;;;9.77;44.36;95960.41;5065305;28;20046;-68
2022/04/14 05:48:45;;;;;;;13.07;7.50;;;;;;;9.91;44.02;95959.97;5065408;28;20525;-68
2022/04/14 05:51:11;;;;;;;13.70;7.05;;;;;;;10.05;43.59;95962.03;5065519;28;20021;-68
2022/04/14 05:53:36;;;;;;;13.75;7.00;;;;;;;10.16;43.90;95958.22;5047573;28;20032;-68
2022/04/14 05:56:02;;;;;;;14.13;7.13;;;;;;;10.36;42.83;95958.81;5046977;28;20025;-68
2022/04/14 05:58:27;;;;;;;8.10;6.55;;;;;;;10.48;41.95;95955.84;5066054;28;20522;-68
2022/04/14 06:00:53;;;;;;;10.52;6.85;;;;;;;10.61;42.13;95955.38;5065128;28;20575;-68
2022/04/14 06:03:18;;;;;;;13.77;7.22;;;;;;;10.71;42.02;95953.41;5065445;28;20063;-69
2022/04/14 06:05:43;;;;;;;9.18;6.13;;;;;;;10.83;41.57;95947.72;5065122;28;20024;-67
2022/04/14 06:08:09;;;;;;;10.05;6.28;;;;;;;10.94;41.82;95955.44;5064871;28;20415;-68
2022/04/14 06:10:35;;;;;;;12.73;6.78;;;;;;;11.12;41.57;95959.81;5065868;28;20013;-68
2022/04/14 06:13:01;;;;;;;13.40;7.05;;;;;;;11.29;40.74;95967.84;5064424;28;20067;-68
2022/04/14 06:15:26;;;;;;;10.52;6.72;;;;;;;11.46;40.76;95972.19;5066340;28;20060;-69
2022/04/14 06:17:52;;;;;;;10.63;6.50;;;;;;;11.73;40.19;95969.31;5068045;28;20025;-70
2022/04/14 06:20:17;;;;;;;12.88;8.02;;;;;;;11.82;40.43;95964.75;5069124;28;20032;-68
2022/04/14 06:22:43;;;;;;;12.32;7.18;;;;;;;11.92;39.98;95968.09;5068012;28;20043;-69
2022/04/14 06:25:13;;;;;;;11.18;6.57;;;;;;;11.99;39.26;95968.25;5068343;28;20064;-69
2022/04/14 06:27:44;;;;;;;11.35;6.63;;;;;;;12.13;39.44;95972.09;5068867;28;20025;-69
2022/04/14 06:30:10;;;;;;;10.65;6.80;;;;;;;12.36;38.87;95974.03;5068123;28;20483;-68
2022/04/14 06:32:36;;;;;;;10.43;6.82;;;;;;;12.36;38.58;95966.78;5069013;28;20031;-69
2022/04/14 06:35:06;;;;;;;9.60;6.28;;;;;;;12.49;38.12;95968.09;5067519;28;20418;-68
2022/04/14 06:37:32;;;;;;;10.15;6.40;;;;;;;12.57;37.91;95959.13;5068908;28;20507;-68
2022/04/14 06:39:58;;;;;;;10.98;5.70;;;;;;;12.69;37.46;95963.09;5067888;28;20035;-68
2022/04/14 06:42:23;;;;;;;10.32;6.05;;;;;;;12.81;36.82;95966.22;5068303;28;20016;-68
2022/04/14 06:44:49;;;;;;;10.40;6.13;;;;;;;12.81;36.88;95960.00;5068310;28;20028;-69
2022/04/14 06:47:14;;;;;;;15.50;6.85;;;;;;;12.89;36.65;95965.34;5068191;28;20047;-68
2022/04/14 06:49:39;;;;;;;10.38;6.60;;;;;;;13.00;35.88;95964.09;5068517;28;20330;-68
2022/04/14 06:52:05;;;;;;;7.95;6.28;;;;;;;13.12;35.61;95964.50;5067390;28;20050;-68
2022/04/14 06:54:30;;;;;;;11.65;5.93;;;;;;;13.27;35.29;95971.81;5050821;28;20411;-67
2022/04/14 06:56:56;;;;;;;11.07;5.95;;;;;;;13.35;35.39;95977.09;5067436;28;20040;-68
2022/04/14 06:59:21;;;;;;;10.68;5.70;;;;;;;13.40;35.73;95979.25;5068283;28;20450;-68
2022/04/14 07:01:47;;;;;;;11.80;6.38;;;;;;;13.34;35.33;95976.28;5068055;28;20479;-67
2022/04/14 07:04:12;;;;;;;9.60;6.13;;;;;;;13.43;35.40;95979.72;5049467;28;20462;-69
2022/04/14 07:06:37;;;;;;;23.27;7.05;;;;;;;13.54;35.17;95980.38;5068487;28;20024;-67
2022/04/14 07:09:03;;;;;;;11.23;5.88;;;;;;;13.70;35.02;95968.59;5067392;28;20081;-68
2022/04/14 07:11:29;;;;;;;10.63;5.85;;;;;;;13.57;34.61;95971.91;5068166;28;20031;-67
2022/04/14 07:13:54;;;;;;;13.52;6.68;;;;;;;13.72;34.80;95971.91;5067271;28;20514;-69
2022/04/14 07:16:19;;;;;;;9.93;5.80;;;;;;;13.72;34.02;95978.16;5068300;28;20479;-69
2022/04/14 07:18:45;;;;;;;10.55;6.72;;;;;;;13.77;34.11;95968.66;5067446;28;20032;-68
2022/04/14 07:21:10;;;;;;;7.65;5.43;;;;;;;13.77;33.83;95965.97;5067515;28;20433;-68
2022/04/14 07:23:36;;;;;;;9.73;6.00;;;;;;;13.93;33.65;95960.41;5067246;28;20048;-68
2022/04/14 07:26:01;;;;;;;13.50;6.57;;;;;;;13.87;33.92;95960.31;5066668;28;20121;-67
2022/04/14 07:28:27;;;;;;;11.38;5.97;;;;;;;13.94;34.58;95959.41;5067529;28;20418;-68
2022/04/14 07:30:52;;;;;;;12.57;6.35;;;;;;;13.98;34.70;95953.66;5066945;28;20025;-68
2022/04/14 07:33:18;;;;;;;11.82;6.10;;;;;;;14.09;33.87;95950.47;5068061;28;20086;-69
2022/04/14 07:35:45;;;;;;;10.95;5.97;;;;;;;14.28;33.82;95942.84;5066886;28;20097;-68
2022/04/14 07:38:11;;;;;;;14.65;6.68;;;;;;;14.21;34.17;95949.00;5067398;28;20056;-68
2022/04/14 07:40:36;;;;;;;10.65;7.53;;;;;;;14.45;33.56;95947.00;5067130;28;20029;-68
2022/04/14 07:43:02;;;;;;;12.75;6.45;;;;;;;14.49;32.41;95949.31;5066848;28;20033;-69
2022/04/14 07:45:27;;;;;;;10.27;6.47;;;;;;;14.54;32.35;95955.00;5067502;28;20093;-67
2022/04/14 07:47:53;;;;;;;9.55;6.45;;;;;;;14.54;32.39;95958.50;5066605;28;20032;-68
2022/04/14 07:50:19;;;;;;;6.95;5.32;;;;;;;14.73;32.01;95956.25;5067253;28;20028;-69
2022/04/14 07:52:49;;;;;;;11.18;7.60;;;;;;;14.61;33.19;95949.66;5066604;28;20020;-69
2022/04/14 07:55:22;;;;;;;10.32;6.43;;;;;;;14.71;33.98;95951.03;5067157;28;20166;-68
2022/04/14 07:57:48;;;;;;;9.55;6.75;;;;;;;14.91;33.75;95953.13;5066864;28;20024;-70
2022/04/14 08:00:14;;;;;;;8.93;6.25;;;;;;;14.98;32.72;95947.00;5066634;28;20094;-68
2022/04/14 08:02:59;;;;;;;9.30;6.00;;;;;;;15.11;31.75;95947.09;5066813;28;20024;-68
2022/04/14 08:05:33;;;;;;;11.15;6.45;;;;;;;15.04;31.43;95936.22;5066007;28;20111;-69
2022/04/14 08:08:02;;;;;;;9.15;6.47;;;;;;;15.16;31.68;95939.25;5067170;28;20510;-69
2022/04/14 08:10:27;;;;;;;13.55;6.05;;;;;;;15.34;31.25;95940.66;5065933;28;20037;-69
2022/04/14 08:12:53;;;;;;;10.93;6.18;;;;;;;15.43;32.50;95944.06;5066912;28;20067;-68
2022/04/14 08:15:18;;;;;;;12.70;6.68;;;;;;;15.36;32.06;95941.31;5066230;28;20086;-69
2022/04/14 08:17:44;;;;;;;10.95;6.57;;;;;;;15.41;32.21;95946.94;5066687;28;20024;-69
2022/04/14 08:20:10;;;;;;;12.73;7.00;;;;;;;15.52;31.30;95936.66;5067038;28;20028;-68
2022/04/14 08:22:50;;;;;;;9.95;6.03;;;;;;;15.20;31.43;95935.13;5065777;28;20017;-69
2022/04/14 08:25:20;;;;;;;13.90;6.22;;;;;;;15.25;31.62;95939.13;5066457;28;20499;-69
2022/04/14 08:27:47;;;;;;;10.15;5.97;;;;;;;15.31;31.19;95936.47;5065809;28;20077;-69
2022/04/14 08:30:13;;;;;;;12.20;6.95;;;;;;;15.41;30.76;95946.94;5066613;28;20028;-69
2022/04/14 08:32:38;;;;;;;11.75;5.72;;;;;;;15.23;30.39;95941.19;5066089;28;20420;-68
2022/04/14 08:35:04;;;;;;;12.57;5.55;;;;;;;15.38;30.42;95941.94;5065799;28;20029;-69
2022/04/14 08:37:30;;;;;;;11.35;5.55;;;;;;;15.52;31.09;95931.25;5066164;28;20024;-68
2022/04/14 08:39:56;;;;;;;8.10;4.75;;;;;;;15.69;31.11;95923.66;5065317;28;20375;-68
2022/04/14 08:42:25;;;;;;;9.18;4.97;;;;;;;15.86;31.09;95929.63;5066324;28;20024;-68
2022/04/14 08:44:55;;;;;;;7.82;4.90;;;;;;;16.03;31.36;95927.47;5065530;28;20025;-69
2022/04/14 08:47:21;;;;;;;10.05;5.13;;;;;;;16.22;31.30;95925.03;5066786;28;20506;-68
2022/04/14 08:49:48;;;;;;;8.27;5.10;;;;;;;16.26;30.60;95920.06;5047965;28;20030;-69
2022/04/14 08:52:15;;;;;;;13.77;5.38;;;;;;;16.36;30.01;95909.72;5031972;28;20069;-69
2022/04/14 08:54:43;;;;;;;12.10;4.53;;;;;;;16.40;29.40;95904.72;5048033;28;20843;-68
2022/04/14 08:57:13;;;;;;;6.82;4.15;;;;;;;16.25;28.49;95904.88;5047925;28;20025;-68
2022/04/14 08:59:39;;;;;;;11.48;4.15;;;;;;;16.04;28.47;95903.97;5066117;28;20036;-68
2022/04/14 09:02:05;;;;;;;9.50;4.38;;;;;;;16.05;28.72;95901.06;5047594;28;20028;-68
2022/04/14 09:04:30;;;;;;;10.88;4.05;;;;;;;16.22;29.13;95899.88;5048075;28;20021;-69
2022/04/14 09:06:56;;;;;;;6.10;3.65;;;;;;;16.27;28.95;95898.22;5065897;28;20494;-69
2022/04/14 09:09:24;;;;;;;6.22;3.63;;;;;;;16.40;28.57;95894.72;5047841;28;20501;-69
2022/04/14 09:11:50;;;;;;;5.18;3.40;;;;;;;16.56;28.38;95884.56;5066050;28;20117;-69
2022/04/14 09:14:15;;;;;;;6.45;3.35;;;;;;;16.65;27.50;95891.47;5065420;28;20506;-68
2022/04/14 09:16:41;;;;;;;5.05;3.38;;;;;;;16.54;26.74;95889.38;5065659;28;20040;-68
2022/04/14 09:19:06;;;;;;;8.70;4.20;;;;;;;16.26;28.67;95883.03;5047417;28;20092;-68
2022/04/14 09:21:32;;;;;;;6.68;4.00;;;;;;;16.46;28.89;95882.25;5066368;28;20032;-68
2022/04/14 09:23:57;;;;;;;9.45;3.65;;;;;;;16.59;29.04;95884.16;5065215;28;20094;-68
2022/04/14 09:26:26;;;;;;;6.35;3.50;;;;;;;16.72;28.43;95879.84;5066060;28;20028;-69
2022/04/14 09:29:09;;;;;;;6.40;3.20;;;;;;;16.90;27.39;95871.09;5048235;28;20097;-68
2022/04/14 09:31:44;;;;;;;;;;;;;;;16.88;27.76;95868.59;5065602;28;20567;-68
2022/04/14 09:34:09;;;;;;;8.85;3.75;;;;;;;16.88;27.50;95868.59;5066389;28;19912;-69
2022/04/14 09:36:35;;;;;;;8.00;3.25;;;;;;;16.98;27.51;95867.34;5030436;28;20039;-68
2022/04/14 09:39:02;;;;;;;6.88;3.72;;;;;;;17.02;27.89;95869.44;5048001;28;20059;-68
2022/04/14 09:41:43;;;;;;;6.22;3.88;;;;;;;17.01;27.04;95866.94;5047392;28;20029;-68
2022/04/14 09:44:13;;;;;;;5.05;3.50;;;;;;;17.08;27.80;95857.00;5065192;28;20028;-69
2022/04/14 09:46:41;;;;;;;5.88;3.72;;;;;;;17.15;27.32;95846.97;5047607;28;20013;-68
2022/04/14 09:49:17;;;;;;;9.13;3.38;;;;;;;17.15;26.37;95852.38;5065556;28;20028;-68
2022/04/14 09:51:46;;;;;;;10.00;3.55;;;;;;;17.15;26.51;95851.56;5070349;28;20537;-69
2022/04/14 09:54:32;;;;;;;6.43;3.30;;;;;;;17.12;26.02;95846.56;5069109;28;20582;-69
2022/04/14 09:56:57;;;;;;;5.80;3.20;;;;;;;17.24;26.63;95838.63;5068375;28;20901;-68
2022/04/14 09:59:30;;;;;;;5.38;3.28;;;;;;;17.23;26.62;95842.38;5069462;28;20067;-68
2022/04/14 10:02:09;;;;;;;7.03;3.30;;;;;;;17.34;27.12;95839.06;5068571;28;20051;-68
2022/04/14 10:04:36;;;;;;;6.28;3.75;;;;;;;17.32;25.50;95838.41;5069522;28;20119;-69
2022/04/14 10:07:15;;;;;;;4.82;3.53;;;;;;;17.41;25.06;95839.88;5068448;28;20032;-69
2022/04/14 10:09:44;;;;;;;4.65;3.38;;;;;;;17.37;26.20;95830.50;5069433;28;20017;-69
2022/04/14 10:12:16;;;;;;;5.97;3.10;;;;;;;17.40;25.39;95838.22;5069371;28;20548;-71
2022/04/14 10:14:42;;;;;;;7.40;3.72;;;;;;;17.34;26.06;95833.63;5068626;28;20513;-69
2022/04/14 10:17:08;;;;;;;5.15;3.40;;;;;;;17.04;25.33;95834.00;5069075;28;20032;-67
2022/04/14 10:19:33;;;;;;;6.03;3.22;;;;;;;17.14;25.52;95826.34;5068458;28;20035;-69
2022/04/14 10:21:59;;;;;;;4.80;3.08;;;;;;;17.11;26.75;95834.88;5051013;28;20025;-68
2022/04/14 10:24:25;;;;;;;7.57;3.70;;;;;;;17.03;24.91;95824.22;5068071;28;20048;-68
2022/04/14 10:26:52;;;;;;;5.80;3.15;;;;;;;17.01;25.24;95824.44;5050986;28;20024;-69
2022/04/14 10:29:17;;;;;;;4.80;2.80;;;;;;;17.04;24.44;95820.47;5051022;28;20029;-69
2022/04/14 10:31:42;;;;;;;6.53;3.63;;;;;;;17.01;24.28;95820.88;5050466;28;20442;-68
2022/04/14 10:34:08;;;;;;;5.35;3.47;;;;;;;17.06;23.72;95818.38;5050527;28;20032;-69
2022/04/14 10:36:40;;;;;;;4.72;3.10;;;;;;;17.02;23.84;95814.44;5050199;28;20024;-69
2022/04/14 10:39:06;;;;;;;5.05;3.00;;;;;;;17.10;26.44;95816.13;5069217;28;20031;-68
2022/04/14 10:41:35;;;;;;;5.65;3.70;;;;;;;17.17;25.91;95812.38;5050056;28;20032;-68
2022/04/14 10:44:01;;;;;;;5.68;3.10;;;;;;;17.21;26.89;95815.50;5051007;28;20111;-68
2022/04/14 10:46:31;;;;;;;6.20;3.25;;;;;;;17.34;24.88;95806.53;5068195;28;20035;-68
2022/04/14 10:49:13;;;;;;;10.50;3.20;;;;;;;17.42;26.78;95819.03;5068028;28;20020;-69
2022/04/14 10:51:38;;;;;;;5.50;3.47;;;;;;;17.55;26.24;95823.59;5068701;28;20029;-68
2022/04/14 10:54:11;;;;;;;4.43;2.70;;;;;;;17.63;24.64;95817.09;5049673;28;20029;-68
2022/04/14 10:56:42;;;;;;;4.45;2.97;;;;;;;17.61;25.16;95817.31;5068880;28;20086;-68
2022/04/14 10:59:11;;;;;;;5.55;3.08;;;;;;;17.57;24.34;95824.22;5067596;28;20040;-68
2022/04/14 11:01:50;;;;;;;5.03;2.88;;;;;;;17.62;23.91;95816.25;5067680;28;20033;-68
2022/04/14 11:04:31;;;;;;;7.65;3.20;;;;;;;17.76;23.31;95808.09;5067983;28;20039;-68
2022/04/14 11:07:21;;;;;;;6.07;3.13;;;;;;;17.96;24.51;95809.91;5067410;28;20020;-68
2022/04/14 11:09:58;;;;;;;9.48;3.40;;;;;;;17.99;23.45;95807.56;5068540;28;20033;-68
2022/04/14 11:12:54;;;;;;;7.57;3.67;;;;;;;17.96;23.30;95801.78;5067796;28;20097;-69
2022/04/14 11:15:31;;;;;;;6.22;3.20;;;;;;;18.09;25.81;95809.84;5067333;28;20029;-69
2022/04/14 11:18:04;;;;;;;5.68;3.40;;;;;;;18.15;23.63;95810.91;5050838;28;20470;-68
2022/04/14 11:20:37;;;;;;;6.32;3.28;;;;;;;18.24;22.67;95806.03;5067202;28;20021;-69
2022/04/14 11:23:15;;;;;;;8.82;3.58;;;;;;;18.34;22.25;95805.59;5067890;28;20036;-68
2022/04/14 11:25:43;;;;;;;8.45;3.30;;;;;;;18.32;22.25;95800.38;5067613;28;20373;-68
2022/04/14 11:28:30;;;;;;;5.25;3.33;;;;;;;18.47;23.60;95801.97;5067054;28;20478;-68
2022/04/14 11:31:11;;;;;;;6.68;3.33;;;;;;;18.51;22.12;95797.75;5068106;28;20161;-68